KAUS/AUS METAR and TAF weather

Enter ICAO airport designator
Station Type Date Time Source
KAUS METAR 2018/12/12 23:53 UTC NOAA

KAUS 122353Z 16003KT 10SM FEW025 OVC200 16/14 A2987 RMK AO2 SLP114 T01610139 10194 20161 58008


Station Type Date Time Source
KAUS Decoded METAR 2018/12/12 23:53 UTC NOAA

AUSTIN-BERGSTROM INTERNATIONAL AIRPORT, TX, United States (KAUS) 30-11N 097-41W 172M
Dec 12, 2018 - 06:53 PM EST / 2018.12.12 2353 UTC
Wind: from the SSE (160 degrees) at 3 MPH (3 KT):0
Visibility: 10 mile(s):0
Sky conditions: overcast
Temperature: 61.0 F (16.1 C)
Dew Point: 57.0 F (13.9 C)
Relative Humidity: 86%
Pressure (altimeter): 29.87 in. Hg (1011 hPa)
Pressure tendency: 0.02 inches (0.8 hPa) lower than three hours ago
ob: KAUS 122353Z 16003KT 10SM FEW025 OVC200 16/14 A2987 RMK AO2 SLP114 T01610139 10194 20161 58008
cycle: 0

Station Type Date Time Source
KAUS TAF 2018/12/12 18:22 UTC NOAA

TAF KAUS 121720Z 1218/1324 18010KT P6SM SCT020 BKN030 OVC200
FM121900 19012KT P6SM BKN035 OVC200
FM130100 18006KT P6SM BKN015 OVC100 PROB30 1303/1309 -SHRA
FM131000 23008KT P6SM SCT018 BKN100
FM131800 26018G25KT P6SM OVC100


Example: see airport list